createdAt,value
2023-02-08T00:01:25.717Z,22.02
2023-02-08T00:03:54.736Z,30.90
2023-02-08T00:06:23.117Z,28.35
2023-02-08T00:08:51.388Z,29.08
2023-02-08T00:11:19.772Z,32.17
2023-02-08T00:13:49.775Z,32.77
2023-02-08T00:16:18.444Z,34.07
2023-02-08T00:18:47.071Z,28.77
2023-02-08T00:21:17.607Z,28.00
2023-02-08T00:23:46.726Z,19.02
2023-02-08T00:26:16.029Z,24.87
2023-02-08T00:28:44.571Z,25.33
2023-02-08T00:31:14.183Z,30.17
2023-02-08T00:33:42.637Z,31.00
2023-02-08T00:36:12.485Z,22.10
2023-02-08T00:38:43.149Z,40.43
2023-02-08T00:41:11.419Z,31.45
2023-02-08T00:43:39.488Z,30.73
2023-02-08T00:46:08.104Z,21.37
2023-02-08T00:48:37.426Z,25.48
2023-02-08T00:51:08.330Z,20.83
2023-02-08T00:53:38.038Z,26.73
2023-02-08T00:56:07.675Z,28.67
2023-02-08T00:58:36.761Z,29.67
2023-02-08T01:01:06.593Z,30.77
2023-02-08T01:03:37.537Z,34.43
2023-02-08T01:06:08.884Z,19.57
2023-02-08T01:08:37.571Z,25.90
2023-02-08T01:11:07.718Z,21.00
2023-02-08T01:13:36.259Z,18.17
2023-02-08T01:16:10.355Z,23.33
2023-02-08T01:18:41.104Z,21.43
2023-02-08T01:21:10.763Z,22.83
2023-02-08T01:23:39.632Z,24.57
2023-02-08T01:26:10.428Z,23.90
2023-02-08T01:28:40.808Z,22.50
2023-02-08T01:31:13.161Z,24.40
2023-02-08T01:33:43.214Z,30.63
2023-02-08T01:36:12.025Z,22.63
2023-02-08T01:38:42.402Z,27.43
2023-02-08T01:41:17.007Z,23.70
2023-02-08T01:46:51.724Z,24.83
2023-02-08T01:49:28.540Z,27.40
2023-02-08T01:52:00.733Z,35.13
2023-02-08T01:54:32.458Z,30.37
2023-02-08T01:57:00.876Z,22.37
2023-02-08T01:59:39.788Z,25.12
2023-02-08T02:02:12.588Z,21.53
2023-02-08T02:04:45.073Z,28.00
2023-02-08T02:07:14.771Z,29.17
2023-02-08T02:09:48.600Z,19.30
2023-02-08T02:12:18.859Z,24.23
2023-02-08T02:14:47.506Z,23.30
2023-02-08T02:17:19.800Z,26.13
2023-02-08T02:19:56.845Z,30.73
2023-02-08T02:22:50.395Z,22.65
2023-02-08T02:25:49.483Z,19.63
2023-02-08T02:28:46.707Z,25.37
2023-02-08T02:31:55.348Z,29.80
2023-02-08T02:34:30.891Z,23.92
2023-02-08T02:37:09.692Z,26.43
2023-02-08T02:39:44.933Z,24.80
2023-02-08T02:42:59.312Z,21.13
2023-02-08T02:46:13.949Z,23.10
2023-02-08T02:48:51.322Z,28.20
2023-02-08T02:51:27.384Z,23.65
2023-02-08T02:54:01.307Z,19.85
2023-02-08T02:56:36.622Z,27.53
2023-02-08T02:59:08.776Z,21.60
2023-02-08T03:01:37.780Z,18.27
2023-02-08T03:04:16.326Z,25.80
2023-02-08T03:06:59.026Z,23.03
2023-02-08T03:10:18.140Z,19.70
2023-02-08T03:12:57.490Z,29.83
2023-02-08T03:15:37.687Z,25.10
2023-02-08T03:18:19.562Z,25.83
2023-02-08T03:25:22.559Z,21.43
2023-02-08T03:28:00.249Z,24.07
2023-02-08T03:30:33.416Z,21.23
2023-02-08T03:33:07.003Z,24.80
2023-02-08T03:35:41.110Z,22.50
2023-02-08T03:38:12.769Z,25.93
2023-02-08T03:40:45.525Z,21.27
2023-02-08T03:43:18.764Z,21.83
2023-02-08T03:45:51.828Z,12.23
2023-02-08T03:48:24.193Z,16.47
2023-02-08T03:50:54.723Z,20.20
2023-02-08T03:53:25.443Z,22.93
2023-02-08T03:56:00.936Z,15.27
2023-02-08T03:58:35.936Z,23.93
2023-02-08T04:01:09.472Z,20.50
2023-02-08T04:03:38.937Z,23.47
2023-02-08T04:06:07.430Z,30.43
2023-02-08T04:08:35.499Z,21.53
2023-02-08T04:11:05.335Z,18.30
2023-02-08T04:13:33.449Z,21.97
2023-02-08T04:16:01.791Z,18.93
2023-02-08T04:18:30.261Z,21.23
2023-02-08T04:20:58.385Z,21.50
2023-02-08T04:23:26.521Z,20.73
2023-02-08T04:25:55.010Z,17.60
2023-02-08T04:28:24.534Z,18.70
2023-02-08T04:30:52.789Z,20.37
2023-02-08T04:33:21.532Z,22.43
2023-02-08T04:35:50.174Z,21.70
2023-02-08T04:38:18.298Z,20.50
2023-02-08T04:40:46.841Z,23.83
2023-02-08T04:43:15.018Z,22.20
2023-02-08T04:45:44.427Z,22.03
2023-02-08T04:48:13.277Z,21.87
2023-02-08T04:50:44.190Z,19.67
2023-02-08T04:53:18.848Z,27.37
2023-02-08T04:55:54.308Z,22.93
2023-02-08T04:58:23.898Z,28.23
2023-02-08T05:00:53.287Z,17.87
2023-02-08T05:03:21.558Z,22.37
2023-02-08T05:05:58.058Z,25.60
2023-02-08T05:08:26.159Z,21.77
2023-02-08T05:10:54.775Z,31.90
2023-02-08T05:13:22.778Z,19.67
2023-02-08T05:15:50.811Z,25.63
2023-02-08T05:18:20.739Z,21.37
2023-02-08T05:20:55.569Z,23.00
2023-02-08T05:23:23.951Z,24.77
2023-02-08T05:25:52.437Z,27.33
2023-02-08T05:28:21.045Z,24.03
2023-02-08T05:30:49.482Z,25.87
2023-02-08T05:33:17.745Z,26.83
2023-02-08T05:35:47.319Z,22.07
2023-02-08T05:38:15.803Z,24.10
2023-02-08T05:40:44.021Z,27.50
2023-02-08T05:43:12.156Z,23.00
2023-02-08T05:45:40.848Z,21.23
2023-02-08T05:48:09.223Z,23.50
2023-02-08T05:50:37.639Z,23.50
2023-02-08T05:53:07.583Z,25.50
2023-02-08T05:55:35.705Z,31.40
2023-02-08T05:58:03.922Z,25.27
2023-02-08T06:00:32.375Z,23.60
2023-02-08T06:03:00.918Z,21.20
2023-02-08T06:05:29.348Z,26.37
2023-02-08T06:07:57.696Z,26.00
2023-02-08T06:10:28.703Z,30.63
2023-02-08T06:12:57.700Z,27.97
2023-02-08T06:15:26.488Z,20.67
2023-02-08T06:17:54.698Z,23.70
2023-02-08T06:20:22.959Z,29.43
2023-02-08T06:22:51.560Z,31.20
2023-02-08T06:25:19.813Z,24.90
2023-02-08T06:27:49.445Z,25.90
2023-02-08T06:30:18.360Z,27.27
2023-02-08T06:32:46.429Z,27.10
2023-02-08T06:35:16.239Z,23.90
2023-02-08T06:37:45.719Z,22.27
2023-02-08T06:40:15.063Z,12.60
2023-02-08T06:42:44.122Z,12.30
2023-02-08T06:45:14.151Z,20.57
2023-02-08T06:47:42.422Z,18.87
2023-02-08T06:50:11.450Z,25.07
2023-02-08T06:52:39.947Z,24.67
2023-02-08T06:55:08.525Z,23.13
2023-02-08T06:57:36.601Z,20.87
2023-02-08T07:00:05.615Z,18.33
2023-02-08T07:02:35.246Z,27.37
2023-02-08T07:05:03.760Z,21.60
2023-02-08T07:07:32.580Z,19.10
2023-02-08T07:10:00.843Z,18.60
2023-02-08T07:12:29.022Z,19.03
2023-02-08T07:14:57.397Z,27.03
2023-02-08T07:17:25.593Z,23.17
2023-02-08T07:19:55.201Z,21.03
2023-02-08T07:22:23.667Z,17.53
2023-02-08T07:24:51.794Z,15.63
2023-02-08T07:27:19.976Z,20.93
2023-02-08T07:29:48.432Z,11.57
2023-02-08T07:32:16.541Z,20.47
2023-02-08T07:34:45.584Z,20.97
2023-02-08T07:37:15.206Z,17.60
2023-02-08T07:39:43.440Z,18.00
2023-02-08T07:42:12.279Z,29.93
2023-02-08T07:44:42.003Z,24.47
2023-02-08T07:47:10.072Z,21.73
2023-02-08T07:49:37.997Z,27.17
2023-02-08T07:52:06.647Z,35.33
2023-02-08T07:54:36.374Z,25.93
2023-02-08T07:57:04.541Z,27.77
2023-02-08T07:59:32.843Z,26.93
2023-02-08T08:02:00.972Z,34.77
2023-02-08T08:04:29.277Z,25.50
2023-02-08T08:06:57.459Z,20.63
2023-02-08T08:09:25.636Z,25.00
2023-02-08T08:11:55.203Z,21.12
2023-02-08T08:14:23.149Z,29.57
2023-02-08T08:16:51.189Z,26.25
2023-02-08T08:19:19.792Z,23.53
2023-02-08T08:21:48.798Z,23.97
2023-02-08T08:24:17.324Z,27.08
2023-02-08T08:26:45.677Z,21.65
2023-02-08T08:29:15.215Z,29.95
2023-02-08T08:31:44.198Z,24.17
2023-02-08T08:34:12.568Z,22.05
2023-02-08T08:36:40.559Z,27.00
2023-02-08T08:39:08.714Z,25.17
2023-02-08T08:41:37.336Z,27.77
2023-02-08T08:44:05.705Z,24.23
2023-02-08T08:46:35.153Z,34.60
2023-02-08T08:49:03.456Z,32.72
2023-02-08T08:51:35.209Z,29.23
2023-02-08T08:54:03.729Z,34.67
2023-02-08T08:56:32.687Z,23.52
2023-02-08T08:59:00.906Z,30.95
2023-02-08T09:01:29.625Z,27.35
2023-02-08T09:03:59.205Z,27.35
2023-02-08T09:06:27.391Z,22.77
2023-02-08T09:08:55.673Z,33.15
2023-02-08T09:11:23.765Z,31.40
2023-02-08T09:13:52.906Z,33.28
2023-02-08T09:16:21.432Z,31.77
2023-02-08T09:18:49.935Z,33.80
2023-02-08T09:21:21.764Z,35.97
2023-02-08T09:23:50.247Z,34.38
2023-02-08T09:26:20.592Z,38.95
2023-02-08T09:28:48.891Z,45.90
2023-02-08T09:31:21.635Z,53.83
2023-02-08T09:33:50.360Z,35.90
2023-02-08T09:36:21.087Z,37.72
2023-02-08T09:38:51.648Z,34.28
2023-02-08T09:41:30.884Z,36.22
2023-02-08T09:44:15.460Z,38.67
2023-02-08T09:46:51.579Z,38.05
2023-02-08T09:49:25.375Z,40.17
2023-02-08T09:51:59.785Z,41.03
2023-02-08T09:54:33.082Z,40.95
2023-02-08T09:57:03.400Z,37.65
2023-02-08T09:59:35.012Z,29.15
2023-02-08T10:02:12.347Z,36.35
2023-02-08T10:04:52.443Z,25.70
2023-02-08T10:07:21.942Z,30.12
2023-02-08T10:09:50.239Z,29.65
2023-02-08T10:12:27.417Z,24.40
2023-02-08T10:15:06.971Z,27.15
2023-02-08T10:18:10.691Z,27.40
2023-02-08T10:20:51.321Z,29.92
2023-02-08T10:23:36.792Z,31.50
2023-02-08T10:26:14.643Z,27.55
2023-02-08T10:29:09.127Z,27.98
2023-02-08T10:31:51.618Z,32.22
2023-02-08T10:34:31.461Z,27.17
2023-02-08T10:37:03.048Z,25.80
2023-02-08T10:39:35.728Z,28.98
2023-02-08T10:42:05.550Z,28.98
2023-02-08T10:44:40.884Z,30.20
2023-02-08T10:47:16.130Z,27.75
2023-02-08T10:49:52.027Z,24.00
2023-02-08T10:52:20.508Z,31.65
2023-02-08T10:54:50.118Z,28.65
2023-02-08T10:57:23.193Z,29.58
2023-02-08T10:59:54.270Z,26.65
2023-02-08T11:02:26.461Z,25.83
2023-02-08T11:05:03.584Z,31.50
2023-02-08T11:07:34.706Z,31.08
2023-02-08T11:10:24.491Z,29.12
2023-02-08T11:12:58.223Z,30.40
2023-02-08T11:15:30.763Z,29.77
2023-02-08T11:18:01.921Z,29.63
2023-02-08T11:20:34.799Z,31.33
2023-02-08T11:23:03.536Z,28.15
2023-02-08T11:25:36.794Z,27.20
2023-02-08T11:28:05.811Z,29.08
2023-02-08T11:30:34.427Z,31.33
2023-02-08T11:33:19.056Z,32.75
2023-02-08T11:35:56.456Z,35.78
2023-02-08T11:38:28.189Z,26.75
2023-02-08T11:41:00.134Z,27.70
2023-02-08T11:43:31.019Z,31.02
2023-02-08T11:46:05.438Z,31.20
2023-02-08T11:48:41.877Z,30.12
2023-02-08T11:51:13.797Z,35.08
2023-02-08T11:53:47.538Z,32.53
2023-02-08T11:56:20.834Z,35.08
2023-02-08T11:59:07.779Z,38.67
2023-02-08T12:01:38.093Z,36.55
2023-02-08T12:04:08.632Z,34.55
2023-02-08T12:06:57.343Z,30.20
2023-02-08T12:09:43.194Z,32.58
2023-02-08T12:12:25.729Z,39.63
2023-02-08T12:15:05.797Z,29.70
2023-02-08T12:17:49.128Z,31.75
2023-02-08T12:20:38.015Z,30.30
2023-02-08T12:23:29.163Z,32.25
2023-02-08T12:26:08.447Z,31.27
2023-02-08T12:28:51.724Z,31.80
2023-02-08T12:31:29.101Z,28.15
2023-02-08T12:34:07.557Z,33.10
2023-02-08T12:37:14.509Z,27.83
2023-02-08T12:40:09.708Z,30.35
2023-02-08T12:42:50.591Z,27.15
2023-02-08T12:45:53.277Z,28.38
2023-02-08T12:48:44.235Z,29.02
2023-02-08T12:51:23.107Z,28.83
2023-02-08T12:53:55.073Z,29.42
2023-02-08T12:56:28.779Z,30.67
2023-02-08T12:59:11.741Z,27.30
2023-02-08T13:01:45.425Z,28.92
2023-02-08T13:04:17.904Z,29.05
2023-02-08T13:06:49.616Z,24.25
2023-02-08T13:09:25.867Z,27.10
2023-02-08T13:11:58.520Z,24.08
2023-02-08T13:14:34.057Z,23.92
2023-02-08T13:17:10.883Z,26.75
2023-02-08T13:20:00.083Z,24.35
2023-02-08T13:22:32.857Z,23.65
2023-02-08T13:25:08.470Z,27.37
2023-02-08T13:27:37.042Z,22.08
2023-02-08T13:30:07.064Z,22.80
2023-02-08T13:32:44.150Z,24.25
2023-02-08T13:35:18.250Z,24.77
2023-02-08T13:37:53.267Z,23.90
2023-02-08T13:40:28.193Z,23.30
2023-02-08T13:43:01.048Z,25.92
2023-02-08T13:45:32.978Z,25.67
2023-02-08T13:48:04.533Z,29.48
2023-02-08T13:50:42.960Z,27.25
2023-02-08T13:53:11.695Z,24.45
2023-02-08T13:56:01.811Z,22.92
2023-02-08T13:58:55.296Z,20.65
2023-02-08T14:01:27.721Z,22.92
2023-02-08T14:04:29.840Z,23.12
2023-02-08T14:07:01.243Z,19.98
2023-02-08T14:09:44.057Z,19.33
2023-02-08T14:12:20.649Z,17.10
2023-02-08T14:15:22.094Z,19.73
2023-02-08T14:17:55.178Z,22.77
2023-02-08T14:20:30.518Z,22.05
2023-02-08T14:23:02.453Z,21.42
2023-02-08T14:25:39.852Z,20.70
2023-02-08T14:28:09.402Z,18.05
2023-02-08T14:30:41.188Z,20.10
2023-02-08T14:33:19.105Z,18.35
2023-02-08T14:35:56.327Z,20.17
2023-02-08T14:39:06.706Z,16.27
2023-02-08T14:41:54.459Z,20.50
2023-02-08T14:45:03.067Z,22.77
2023-02-08T14:48:20.287Z,21.58
2023-02-08T14:50:58.094Z,22.83
2023-02-08T14:53:36.591Z,22.35
2023-02-08T14:56:15.502Z,21.75
2023-02-08T14:58:46.764Z,26.42
2023-02-08T15:01:20.181Z,25.75
2023-02-08T15:03:51.653Z,25.85
2023-02-08T15:07:01.628Z,24.87
2023-02-08T15:09:32.204Z,25.23
2023-02-08T15:12:02.806Z,27.42
2023-02-08T15:14:34.926Z,28.80
2023-02-08T15:17:03.297Z,32.42
2023-02-08T15:19:34.150Z,29.95
2023-02-08T15:22:18.967Z,27.35
2023-02-08T15:24:51.225Z,34.35
2023-02-08T15:27:23.096Z,32.10
2023-02-08T15:29:51.743Z,26.10
2023-02-08T15:32:22.802Z,31.83
2023-02-08T15:34:55.427Z,27.55
2023-02-08T15:37:26.157Z,30.58
2023-02-08T15:39:56.799Z,31.90
2023-02-08T15:42:28.890Z,34.25
2023-02-08T15:44:57.584Z,32.88
2023-02-08T15:47:30.057Z,27.33
2023-02-08T15:49:59.489Z,30.75
2023-02-08T15:52:36.069Z,28.35
2023-02-08T15:55:07.873Z,31.35
2023-02-08T15:57:40.926Z,28.85
2023-02-08T16:00:17.207Z,32.72
2023-02-08T16:02:51.469Z,28.87
2023-02-08T16:05:22.439Z,26.80
2023-02-08T16:07:53.043Z,32.17
2023-02-08T16:10:29.947Z,27.55
2023-02-08T16:13:00.256Z,28.77
2023-02-08T16:15:43.673Z,29.90
2023-02-08T16:18:46.435Z,29.45
2023-02-08T16:21:23.405Z,28.20
2023-02-08T16:23:55.019Z,28.05
2023-02-08T16:26:28.473Z,29.33
2023-02-08T16:29:04.846Z,27.83
2023-02-08T16:31:36.813Z,33.65
2023-02-08T16:34:08.545Z,26.23
2023-02-08T16:36:42.283Z,21.90
2023-02-08T16:39:37.976Z,25.33
2023-02-08T16:42:16.338Z,26.27
2023-02-08T16:45:03.401Z,25.92
2023-02-08T16:47:37.927Z,26.48
2023-02-08T16:50:07.577Z,27.75
2023-02-08T16:52:36.262Z,24.52
2023-02-08T16:55:06.643Z,24.23
2023-02-08T16:57:42.993Z,25.48
2023-02-08T17:00:17.617Z,19.85
2023-02-08T17:02:46.139Z,23.65
2023-02-08T17:05:15.006Z,30.30
2023-02-08T17:07:43.089Z,29.90
2023-02-08T17:10:19.769Z,25.35
2023-02-08T17:12:48.074Z,26.17
2023-02-08T17:15:16.756Z,24.02
2023-02-08T17:17:44.924Z,25.25
2023-02-08T17:20:23.266Z,19.67
2023-02-08T17:22:52.665Z,21.80
2023-02-08T17:25:22.430Z,25.12
2023-02-08T17:27:53.973Z,27.45
2023-02-08T17:30:25.441Z,22.08
2023-02-08T17:32:53.913Z,30.75
2023-02-08T17:35:21.998Z,24.20
2023-02-08T17:37:53.068Z,27.85
2023-02-08T17:40:27.071Z,23.00
2023-02-08T17:42:55.429Z,29.20
2023-02-08T17:45:23.842Z,24.77
2023-02-08T17:47:51.926Z,21.55
2023-02-08T17:50:20.519Z,26.27
2023-02-08T17:52:49.219Z,20.95
2023-02-08T17:55:18.933Z,25.60
2023-02-08T17:57:48.740Z,20.25
2023-02-08T18:00:19.298Z,20.73
2023-02-08T18:02:49.494Z,18.85
2023-02-08T18:05:19.044Z,22.77
2023-02-08T18:07:47.538Z,20.15
2023-02-08T18:10:16.882Z,23.98
2023-02-08T18:12:44.966Z,20.30
2023-02-08T18:15:18.172Z,17.70
2023-02-08T18:17:47.752Z,24.95
2023-02-08T18:20:17.232Z,16.48
2023-02-08T18:22:45.884Z,18.48
2023-02-08T18:25:16.049Z,21.55
2023-02-08T18:27:44.889Z,18.58
2023-02-08T18:30:15.654Z,22.30
2023-02-08T18:32:43.836Z,23.50
2023-02-08T18:35:12.597Z,23.90
2023-02-08T18:37:40.908Z,23.23
2023-02-08T18:40:10.088Z,20.37
2023-02-08T18:42:38.697Z,22.58
2023-02-08T18:45:07.409Z,25.83
2023-02-08T18:47:38.068Z,25.05
2023-02-08T18:50:07.112Z,20.33
2023-02-08T18:52:35.267Z,21.58
2023-02-08T18:55:03.359Z,20.88
2023-02-08T18:57:31.733Z,22.02
2023-02-08T18:59:59.718Z,20.83
2023-02-08T19:02:27.890Z,22.37
2023-02-08T19:04:57.677Z,24.17
2023-02-08T19:07:25.798Z,21.25
2023-02-08T19:09:54.185Z,23.00
2023-02-08T19:12:22.469Z,24.40
2023-02-08T19:14:51.570Z,26.35
2023-02-08T19:17:19.756Z,17.05
2023-02-08T19:19:48.426Z,19.35
2023-02-08T19:22:17.815Z,19.33
2023-02-08T19:24:45.889Z,29.65
2023-02-08T19:27:14.080Z,30.65
2023-02-08T19:29:42.322Z,19.65
2023-02-08T19:32:10.400Z,18.60
2023-02-08T19:34:38.734Z,22.95
2023-02-08T19:37:07.234Z,21.60
2023-02-08T19:39:36.557Z,21.58
2023-02-08T19:42:05.728Z,19.70
2023-02-08T19:44:33.811Z,27.52
2023-02-08T19:47:01.902Z,21.58
2023-02-08T19:49:30.254Z,27.02
2023-02-08T19:51:58.286Z,27.50
2023-02-08T19:54:26.758Z,25.58
2023-02-08T19:56:56.686Z,21.58
2023-02-08T19:59:26.738Z,22.13
2023-02-08T20:01:56.256Z,23.27
2023-02-08T20:04:25.127Z,20.98
2023-02-08T20:06:54.265Z,27.77
2023-02-08T20:09:22.864Z,25.52
2023-02-08T20:12:00.127Z,27.33
2023-02-08T20:14:33.947Z,25.23
2023-02-08T20:17:03.150Z,22.92
2023-02-08T20:19:31.352Z,25.10
2023-02-08T20:21:59.728Z,26.50
2023-02-08T20:24:28.460Z,19.75
2023-02-08T20:26:56.831Z,19.77
2023-02-08T20:29:26.291Z,26.00
2023-02-08T20:31:57.828Z,23.95
2023-02-08T20:34:26.038Z,31.20
2023-02-08T20:37:06.874Z,25.65
2023-02-08T20:39:36.308Z,29.58
2023-02-08T20:42:05.351Z,21.58
2023-02-08T20:44:33.388Z,22.13
2023-02-08T20:47:02.917Z,26.58
2023-02-08T20:49:32.325Z,18.95
2023-02-08T20:52:00.634Z,26.12
2023-02-08T20:54:28.574Z,21.77
2023-02-08T20:56:57.063Z,21.50
2023-02-08T20:59:25.243Z,27.60
2023-02-08T21:01:53.339Z,25.62
2023-02-08T21:04:23.817Z,21.10
2023-02-08T21:06:52.838Z,23.70
2023-02-08T21:09:21.155Z,23.80
2023-02-08T21:11:52.465Z,25.40
2023-02-08T21:14:23.560Z,23.75
2023-02-08T21:16:55.815Z,23.33
2023-02-08T21:19:26.755Z,30.30
2023-02-08T21:21:59.602Z,31.40
2023-02-08T21:24:29.082Z,23.47
2023-02-08T21:26:58.035Z,20.02
2023-02-08T21:29:26.921Z,20.67
2023-02-08T21:31:56.999Z,31.43
2023-02-08T21:34:27.179Z,21.27
2023-02-08T21:36:55.563Z,25.00
2023-02-08T21:39:24.161Z,22.73
2023-02-08T21:41:55.317Z,26.43
2023-02-08T21:44:23.596Z,23.20
2023-02-08T21:46:51.809Z,25.27
2023-02-08T21:49:37.766Z,27.83
2023-02-08T21:52:25.239Z,26.60
2023-02-08T21:54:53.991Z,21.43
2023-02-08T21:57:23.893Z,21.27
2023-02-08T21:59:54.699Z,23.20
2023-02-08T22:02:25.631Z,22.57
2023-02-08T22:05:13.278Z,22.23
2023-02-08T22:07:45.343Z,19.97
2023-02-08T22:10:15.266Z,23.20
2023-02-08T22:12:43.843Z,25.73
2023-02-08T22:15:13.377Z,26.07
2023-02-08T22:17:42.101Z,23.92
2023-02-08T22:20:11.881Z,25.60
2023-02-08T22:22:40.592Z,21.70
2023-02-08T22:25:10.657Z,26.25
2023-02-08T22:27:39.860Z,23.73
2023-02-08T22:30:10.842Z,20.97
2023-02-08T22:32:40.964Z,28.70
2023-02-08T22:35:10.242Z,29.97
2023-02-08T22:37:38.524Z,22.27
2023-02-08T22:40:07.961Z,20.80
2023-02-08T22:42:39.453Z,24.67
2023-02-08T22:45:08.344Z,23.60
2023-02-08T22:47:37.084Z,29.03
2023-02-08T22:50:05.798Z,26.20
2023-02-08T22:52:34.621Z,28.07
2023-02-08T22:55:04.140Z,27.53
2023-02-08T22:57:33.171Z,29.30
2023-02-08T23:00:03.124Z,26.00
2023-02-08T23:02:32.407Z,27.97
2023-02-08T23:05:00.493Z,19.53
2023-02-08T23:07:28.951Z,20.50
2023-02-08T23:09:57.376Z,19.63
2023-02-08T23:12:25.923Z,21.07
2023-02-08T23:14:54.114Z,28.83
2023-02-08T23:17:24.028Z,27.60
2023-02-08T23:19:53.268Z,28.57
2023-02-08T23:22:21.355Z,20.60
2023-02-08T23:24:50.012Z,24.17
2023-02-08T23:27:18.211Z,23.23
2023-02-08T23:29:46.479Z,20.47
2023-02-08T23:32:14.969Z,21.07
2023-02-08T23:34:44.591Z,26.80
2023-02-08T23:37:12.777Z,23.93
2023-02-08T23:39:41.235Z,17.73
